Terminal Aerodrome Forecast
Issued by NWS Wichita, KS

Home | Current Version | Previous Version | Text Only | Print | Product List | Glossary On
Versions: 1 2 3 4 5 6 7 8 9 10 11 12 13 14 15
272
FTUS43 KICT 240534
TAFICT
TAF
KICT 240534Z 2406/2506 34007KT P6SM BKN060
     FM240900 33007KT P6SM SCT120
     FM250000 34006KT P6SM SKC
     FM250200 08004KT P6SM SKC=

USA.gov is the U.S. government's official web portal to all federal, state and local government web resources and services.